Marine Hornbill — 3FEF3 — position and weather

sailwx.info

Track history (hours):
 
Tides and Currents Weather Stations Pressure Air Temp Water Temp Dewpoint Dewpoint Depression Visibility Wind Speed Wind Dir Waves Ship Positions

Marine Hornbill

Last reported at 2017-Oct-14 16:05 UTC. Time now 2017-Oct-18 03:53 UTC.
Position N 01°15' E 103°52'.

Length 116 m; draft 5.4 m.

Type: Cargo ship. MMSI: 357869000.

Date/timePositionNaut miles runAvg speedWind from/ knotsBaromVisibWave heightAir tempDewpointWater temp
2017-Oct-14 16:05N 01°15' E 103°52'0 0.0
2017-Oct-14 15:39N 01°15' E 103°52'0 0.0
2017-Oct-14 14:19N 01°15' E 103°52'0 0.0
2017-Oct-14 12:32N 01°15' E 103°52'0 0.0
2017-Oct-14 12:02N 01°15' E 103°52'0 0.0
2017-Oct-14 11:46N 01°15' E 103°52'3318.8
2017-Oct-14 10:01N 01°19' E 103°20'014.2
2017-Oct-14 10:00N 01°19' E 103°20'712.8
2017-Oct-14 09:27N 01°14' E 103°25'812.9
2017-Oct-14 08:52N 01°12' E 103°33'513.3
2017-Oct-14 08:30N 01°11' E 103°37'612.9
2017-Oct-14 08:00N 01°09' E 103°43'713.0
2017-Oct-14 07:30N 01°11' E 103°49'4 7.7
2017-Oct-14 07:00N 01°14' E 103°52'1 2.2
2017-Oct-14 06:29N 01°15' E 103°52'0 0.0
2017-Oct-14 05:59N 01°15' E 103°52'0 0.0
2017-Oct-14 05:29N 01°15' E 103°52'0 0.0
2017-Oct-14 04:59N 01°15' E 103°52'0 0.1
2017-Oct-14 04:26N 01°15' E 103°52'0 0.0
2017-Oct-14 03:59N 01°15' E 103°52'0 0.0
2017-Oct-14 03:29N 01°15' E 103°52'916.8
2017-Oct-14 02:58N 01°16' E 104°01'1 2.2
2017-Oct-14 02:29N 01°16' E 104°02'1 2.1
2017-Oct-14 02:00N 01°16' E 104°03'1 2.4
2017-Oct-14 01:29N 01°16' E 104°04'1 2.4
2017-Oct-14 00:59N 01°16' E 104°05'1318.9
2017-Oct-14 00:17N 01°15' E 103°52'1633.9
2017-Oct-13 23:49N 01°17' E 104°08'1632.0
2017-Oct-13 23:20N 01°15' E 103°52'0 0.1
2017-Oct-13 22:53N 01°15' E 103°52'0 0.0
2017-Oct-13 22:23N 01°15' E 103°52'0 0.0
2017-Oct-13 21:59N 01°15' E 103°52'0 0.0
2017-Oct-13 21:29N 01°15' E 103°52'0 0.0
2017-Oct-13 20:59N 01°15' E 103°52'0 0.0
2017-Oct-13 20:29N 01°15' E 103°52'0 0.1
2017-Oct-13 19:59N 01°15' E 103°53'0 0.0
2017-Oct-13 19:29N 01°15' E 103°53'0 0.1
2017-Oct-13 18:53N 01°15' E 103°52'0 0.0
2017-Oct-13 18:29N 01°15' E 103°52'0 0.1
2017-Oct-13 17:56N 01°15' E 103°52'0 0.1
2017-Oct-13 17:29N 01°15' E 103°53'0 0.0
2017-Oct-13 16:59N 01°15' E 103°53'0 0.1
2017-Oct-13 16:29N 01°15' E 103°52'0 1.0
2017-Oct-13 16:01N 01°15' E 103°53'1 2.8
2017-Oct-13 15:30N 01°14' E 103°54'4 8.4
2017-Oct-13 15:00N 01°15' E 103°58'  
Track history (hours):
 
Tides and Currents Weather Stations Pressure Air Temp Water Temp Dewpoint Dewpoint Depression Visibility Wind Speed Wind Dir Waves Ship Positions

Marine Hornbill

Last reported at 2017-Oct-14 16:05 UTC. Time now 2017-Oct-18 03:53 UTC.
Position N 01°15' E 103°52'.

Length 116 m; draft 5.4 m.

Type: Cargo ship. MMSI: 357869000.

Date/timePositionNaut miles runAvg speedWind from/ knotsBaromVisibWave heightAir tempDewpointWater temp
2017-Oct-14 16:05N 01°15' E 103°52'0 0.0
2017-Oct-14 15:39N 01°15' E 103°52'0 0.0
2017-Oct-14 14:19N 01°15' E 103°52'0 0.0
2017-Oct-14 12:32N 01°15' E 103°52'0 0.0
2017-Oct-14 12:02N 01°15' E 103°52'0 0.0
2017-Oct-14 11:46N 01°15' E 103°52'3318.8
2017-Oct-14 10:01N 01°19' E 103°20'014.2
2017-Oct-14 10:00N 01°19' E 103°20'712.8
2017-Oct-14 09:27N 01°14' E 103°25'812.9
2017-Oct-14 08:52N 01°12' E 103°33'513.3
2017-Oct-14 08:30N 01°11' E 103°37'612.9
2017-Oct-14 08:00N 01°09' E 103°43'713.0
2017-Oct-14 07:30N 01°11' E 103°49'4 7.7
2017-Oct-14 07:00N 01°14' E 103°52'1 2.2
2017-Oct-14 06:29N 01°15' E 103°52'0 0.0
2017-Oct-14 05:59N 01°15' E 103°52'0 0.0
2017-Oct-14 05:29N 01°15' E 103°52'0 0.0
2017-Oct-14 04:59N 01°15' E 103°52'0 0.1
2017-Oct-14 04:26N 01°15' E 103°52'0 0.0
2017-Oct-14 03:59N 01°15' E 103°52'0 0.0
2017-Oct-14 03:29N 01°15' E 103°52'916.8
2017-Oct-14 02:58N 01°16' E 104°01'1 2.2
2017-Oct-14 02:29N 01°16' E 104°02'1 2.1
2017-Oct-14 02:00N 01°16' E 104°03'1 2.4
2017-Oct-14 01:29N 01°16' E 104°04'1 2.4
2017-Oct-14 00:59N 01°16' E 104°05'1318.9
2017-Oct-14 00:17N 01°15' E 103°52'1633.9
2017-Oct-13 23:49N 01°17' E 104°08'1632.0
2017-Oct-13 23:20N 01°15' E 103°52'0 0.1
2017-Oct-13 22:53N 01°15' E 103°52'0 0.0
2017-Oct-13 22:23N 01°15' E 103°52'0 0.0
2017-Oct-13 21:59N 01°15' E 103°52'0 0.0
2017-Oct-13 21:29N 01°15' E 103°52'0 0.0
2017-Oct-13 20:59N 01°15' E 103°52'0 0.0
2017-Oct-13 20:29N 01°15' E 103°52'0 0.1
2017-Oct-13 19:59N 01°15' E 103°53'0 0.0
2017-Oct-13 19:29N 01°15' E 103°53'0 0.1
2017-Oct-13 18:53N 01°15' E 103°52'0 0.0
2017-Oct-13 18:29N 01°15' E 103°52'0 0.1
2017-Oct-13 17:56N 01°15' E 103°52'0 0.1
2017-Oct-13 17:29N 01°15' E 103°53'0 0.0
2017-Oct-13 16:59N 01°15' E 103°53'0 0.1
2017-Oct-13 16:29N 01°15' E 103°52'0 1.0
2017-Oct-13 16:01N 01°15' E 103°53'1 2.8
2017-Oct-13 15:30N 01°14' E 103°54'4 8.4
2017-Oct-13 15:00N 01°15' E 103°58'  

Dump ship's entire track history